createdAt,value
2017-11-25T00:00:31.117Z,11.30
2017-11-25T00:03:04.810Z,11.30
2017-11-25T00:05:39.316Z,11.30
2017-11-25T00:08:12.990Z,11.30
2017-11-25T00:10:47.549Z,11.40
2017-11-25T00:13:22.138Z,11.40
2017-11-25T00:15:56.861Z,11.40
2017-11-25T00:18:31.392Z,11.50
2017-11-25T00:21:05.091Z,11.50
2017-11-25T00:23:38.822Z,11.50
2017-11-25T00:26:12.575Z,11.40
2017-11-25T00:28:46.311Z,11.40
2017-11-25T00:31:20.075Z,11.50
2017-11-25T00:33:53.897Z,11.50
2017-11-25T00:36:27.685Z,11.40
2017-11-25T00:39:02.268Z,11.40
2017-11-25T00:41:36.083Z,11.40
2017-11-25T00:44:09.785Z,11.40
2017-11-25T00:46:43.594Z,11.40
2017-11-25T00:49:17.459Z,11.40
2017-11-25T00:51:51.472Z,11.40
2017-11-25T00:54:25.183Z,11.30
2017-11-25T00:56:58.937Z,11.30
2017-11-25T00:59:37.605Z,11.20
2017-11-25T01:02:12.169Z,11.20
2017-11-25T01:04:45.798Z,11.20
2017-11-25T01:07:19.590Z,11.20
2017-11-25T01:09:53.425Z,11.20
2017-11-25T01:12:27.220Z,11.20
2017-11-25T01:15:00.978Z,11.20
2017-11-25T01:17:34.782Z,11.20
2017-11-25T01:20:09.299Z,11.30
2017-11-25T01:22:42.969Z,11.30
2017-11-25T01:25:16.557Z,11.20
2017-11-25T01:27:51.046Z,11.30
2017-11-25T01:30:25.443Z,11.20
2017-11-25T01:32:59.178Z,11.30
2017-11-25T01:35:32.949Z,11.30
2017-11-25T01:38:07.625Z,11.30
2017-11-25T01:40:41.454Z,11.30
2017-11-25T01:43:15.624Z,11.30
2017-11-25T01:45:50.741Z,11.40
2017-11-25T01:48:24.464Z,11.40
2017-11-25T01:50:58.221Z,11.40
2017-11-25T01:53:33.013Z,11.30
2017-11-25T01:56:06.799Z,11.30
2017-11-25T01:58:40.545Z,11.30
2017-11-25T02:01:14.340Z,11.30
2017-11-25T02:03:48.829Z,11.10
2017-11-25T02:06:22.563Z,11.10
2017-11-25T02:08:57.391Z,11.10
2017-11-25T02:11:31.331Z,11.10
2017-11-25T02:14:05.412Z,11.20
2017-11-25T02:16:39.137Z,11.20
2017-11-25T02:19:13.114Z,11.10
2017-11-25T02:21:47.744Z,11.20
2017-11-25T02:24:21.623Z,11.20
2017-11-25T02:26:55.387Z,11.10
2017-11-25T02:29:29.174Z,11.10
2017-11-25T02:32:03.673Z,11.00
2017-11-25T02:34:37.372Z,11.00
2017-11-25T02:37:11.176Z,11.00
2017-11-25T02:39:45.579Z,10.90
2017-11-25T02:42:19.266Z,10.90
2017-11-25T02:44:53.019Z,10.90
2017-11-25T02:47:26.801Z,11.00
2017-11-25T02:50:00.588Z,10.90
2017-11-25T02:52:35.157Z,10.90
2017-11-25T02:55:08.929Z,10.90
2017-11-25T02:57:42.777Z,11.00
2017-11-25T03:00:16.481Z,11.10
2017-11-25T03:02:50.554Z,11.20
2017-11-25T03:05:25.102Z,11.20
2017-11-25T03:07:58.829Z,11.20
2017-11-25T03:10:33.475Z,11.30
2017-11-25T03:13:07.256Z,11.30
2017-11-25T03:15:40.856Z,11.30
2017-11-25T03:18:14.645Z,11.30
2017-11-25T03:20:49.177Z,11.30
2017-11-25T03:23:23.033Z,11.30
2017-11-25T03:25:58.781Z,11.30
2017-11-25T03:28:33.358Z,11.30
2017-11-25T03:31:07.181Z,11.30
2017-11-25T03:33:41.007Z,11.30
2017-11-25T03:36:14.639Z,11.30
2017-11-25T03:38:48.781Z,11.10
2017-11-25T03:41:23.308Z,10.80
2017-11-25T03:43:57.210Z,10.80
2017-11-25T03:46:31.063Z,10.70
2017-11-25T03:49:04.718Z,10.60
2017-11-25T03:51:38.411Z,10.50
2017-11-25T03:54:12.295Z,10.40
2017-11-25T03:56:45.946Z,10.40
2017-11-25T03:59:20.461Z,10.40
2017-11-25T04:01:54.170Z,10.30
2017-11-25T04:04:28.194Z,10.50
2017-11-25T04:07:01.988Z,10.60
2017-11-25T04:09:35.689Z,10.60
2017-11-25T04:12:09.458Z,10.60
2017-11-25T04:14:43.188Z,10.60
2017-11-25T04:17:16.853Z,10.60
2017-11-25T04:19:50.595Z,10.50
2017-11-25T04:22:24.251Z,10.50
2017-11-25T04:24:57.956Z,10.40
2017-11-25T04:27:31.716Z,10.30
2017-11-25T04:30:05.420Z,10.40
2017-11-25T04:32:39.145Z,10.40
2017-11-25T04:35:12.889Z,10.30
2017-11-25T04:37:46.674Z,10.20
2017-11-25T04:40:20.495Z,10.10
2017-11-25T04:42:54.200Z,10.00
2017-11-25T04:45:28.738Z,10.00
2017-11-25T04:48:02.483Z,9.90
2017-11-25T04:50:36.267Z,9.90
2017-11-25T04:53:10.107Z,9.70
2017-11-25T04:55:43.762Z,9.70
2017-11-25T04:58:37.988Z,9.80
2017-11-25T05:01:11.786Z,9.70
2017-11-25T05:03:45.557Z,9.70
2017-11-25T05:06:19.195Z,9.70
2017-11-25T05:08:52.893Z,9.70
2017-11-25T05:11:26.647Z,9.60
2017-11-25T05:14:00.408Z,9.70
2017-11-25T05:16:34.192Z,9.70
2017-11-25T05:19:08.798Z,9.80
2017-11-25T05:21:42.581Z,9.80
2017-11-25T05:24:16.326Z,9.80
2017-11-25T05:26:50.138Z,9.90
2017-11-25T05:29:23.813Z,9.90
2017-11-25T05:31:57.558Z,9.90
2017-11-25T05:34:31.235Z,9.90
2017-11-25T05:37:04.990Z,9.90
2017-11-25T05:39:38.914Z,9.80
2017-11-25T05:42:12.552Z,9.60
2017-11-25T05:44:46.446Z,9.60
2017-11-25T05:47:20.182Z,9.40
2017-11-25T05:49:53.981Z,9.40
2017-11-25T05:52:27.573Z,9.40
2017-11-25T05:55:01.482Z,9.40
2017-11-25T05:57:37.208Z,9.30
2017-11-25T06:00:10.983Z,9.20
2017-11-25T06:02:44.742Z,9.20
2017-11-25T06:05:18.427Z,9.10
2017-11-25T06:07:52.176Z,9.20
2017-11-25T06:10:26.011Z,9.20
2017-11-25T06:13:00.487Z,9.10
2017-11-25T06:15:35.003Z,9.10
2017-11-25T06:18:08.634Z,9.10
2017-11-25T06:20:42.432Z,9.10
2017-11-25T06:23:16.140Z,9.00
2017-11-25T06:25:49.974Z,8.90
2017-11-25T06:28:23.727Z,9.00
2017-11-25T06:30:58.682Z,9.00
2017-11-25T06:33:32.496Z,9.00
2017-11-25T06:36:06.546Z,9.00
2017-11-25T06:38:40.190Z,8.90
2017-11-25T06:41:14.033Z,8.80
2017-11-25T06:43:48.513Z,8.70
2017-11-25T06:46:23.028Z,8.70
2017-11-25T06:48:57.251Z,8.80
2017-11-25T06:51:31.383Z,8.70
2017-11-25T06:54:05.226Z,8.60
2017-11-25T06:56:38.991Z,8.60
2017-11-25T06:59:12.780Z,8.60
2017-11-25T07:01:46.617Z,8.50
2017-11-25T07:04:21.392Z,8.50
2017-11-25T07:06:55.439Z,8.60
2017-11-25T07:09:29.224Z,8.60
2017-11-25T07:12:03.301Z,8.60
2017-11-25T07:14:37.687Z,8.60
2017-11-25T07:17:11.464Z,8.60
2017-11-25T07:19:46.946Z,8.70
2017-11-25T07:22:20.778Z,8.60
2017-11-25T07:24:54.429Z,8.60
2017-11-25T07:27:28.381Z,8.60
2017-11-25T07:30:02.200Z,8.60
2017-11-25T07:32:36.021Z,8.50
2017-11-25T07:35:09.807Z,8.50
2017-11-25T07:37:44.362Z,8.60
2017-11-25T07:40:18.913Z,8.50
2017-11-25T07:42:52.827Z,8.40
2017-11-25T07:45:27.466Z,8.40
2017-11-25T07:48:01.319Z,8.40
2017-11-25T07:50:35.190Z,8.50
2017-11-25T07:53:08.843Z,8.50
2017-11-25T07:55:42.758Z,8.60
2017-11-25T07:58:17.327Z,8.60
2017-11-25T08:00:51.203Z,8.60
2017-11-25T08:03:25.860Z,8.70
2017-11-25T08:05:59.716Z,8.70
2017-11-25T08:11:00.655Z,8.60
2017-11-25T08:13:34.566Z,8.60
2017-11-25T08:16:10.341Z,8.60
2017-11-25T08:18:45.043Z,8.50
2017-11-25T08:21:19.601Z,8.50
2017-11-25T08:23:53.533Z,8.40
2017-11-25T08:26:27.569Z,8.40
2017-11-25T08:29:02.017Z,8.40
2017-11-25T08:31:36.756Z,8.40
2017-11-25T08:34:10.602Z,8.40
2017-11-25T08:36:45.365Z,8.10
2017-11-25T08:39:19.336Z,8.10
2017-11-25T08:41:53.242Z,7.90
2017-11-25T08:44:29.037Z,7.90
2017-11-25T08:47:02.850Z,7.90
2017-11-25T08:49:42.394Z,7.90
2017-11-25T08:52:18.327Z,7.90
2017-11-25T08:54:52.209Z,7.80
2017-11-25T08:57:29.748Z,7.80
2017-11-25T09:00:04.192Z,7.80
2017-11-25T09:02:39.055Z,7.80
2017-11-25T09:05:13.067Z,7.80
2017-11-25T09:07:47.230Z,7.80
2017-11-25T09:10:21.013Z,7.70
2017-11-25T09:12:56.045Z,7.80
2017-11-25T09:15:29.786Z,7.70
2017-11-25T09:18:04.555Z,7.90
2017-11-25T09:20:38.446Z,7.80
2017-11-25T09:23:12.436Z,7.90
2017-11-25T09:25:47.078Z,7.90
2017-11-25T09:28:21.365Z,7.80
2017-11-25T09:30:55.187Z,7.90
2017-11-25T09:33:31.158Z,7.90
2017-11-25T09:36:05.086Z,7.80
2017-11-25T09:38:39.666Z,7.90
2017-11-25T09:41:13.537Z,7.90
2017-11-25T09:43:47.373Z,7.80
2017-11-25T09:46:21.371Z,7.80
2017-11-25T09:48:59.285Z,7.80
2017-11-25T09:51:33.855Z,7.70
2017-11-25T09:54:16.102Z,7.70
2017-11-25T09:56:50.053Z,7.70
2017-11-25T09:59:25.744Z,7.60
2017-11-25T10:02:00.112Z,7.60
2017-11-25T10:04:35.221Z,7.50
2017-11-25T10:07:09.163Z,7.50
2017-11-25T10:09:43.083Z,7.30
2017-11-25T10:12:16.889Z,7.20
2017-11-25T10:14:50.745Z,7.30
2017-11-25T10:17:24.579Z,7.30
2017-11-25T10:19:59.076Z,7.40
2017-11-25T10:22:32.845Z,7.30
2017-11-25T10:25:06.698Z,7.30
2017-11-25T10:27:40.591Z,7.40
2017-11-25T10:30:15.335Z,7.40
2017-11-25T10:32:51.537Z,7.50
2017-11-25T10:35:25.176Z,7.40
2017-11-25T10:37:59.147Z,7.40
2017-11-25T10:40:33.637Z,7.50
2017-11-25T10:43:07.467Z,7.50
2017-11-25T10:45:41.235Z,7.60
2017-11-25T10:48:15.689Z,7.60
2017-11-25T10:50:51.193Z,7.70
2017-11-25T10:53:25.031Z,7.70
2017-11-25T10:55:58.915Z,7.50
2017-11-25T10:58:34.565Z,7.50
2017-11-25T11:01:08.578Z,7.40
2017-11-25T11:03:42.493Z,7.30
2017-11-25T11:06:17.722Z,7.20
2017-11-25T11:08:52.587Z,7.30
2017-11-25T11:11:26.555Z,7.20
2017-11-25T11:14:04.289Z,7.30
2017-11-25T11:16:38.092Z,7.30
2017-11-25T11:19:13.832Z,7.40
2017-11-25T11:21:47.648Z,7.50
2017-11-25T11:24:23.466Z,7.50
2017-11-25T11:26:58.951Z,7.50
2017-11-25T11:29:32.818Z,7.50
2017-11-25T11:32:07.413Z,7.60
2017-11-25T11:34:41.561Z,7.60
2017-11-25T11:37:15.486Z,7.60
2017-11-25T11:39:49.376Z,7.70
2017-11-25T11:42:23.150Z,7.70
2017-11-25T11:44:57.107Z,7.50
2017-11-25T11:47:30.943Z,7.40
2017-11-25T11:50:05.719Z,7.40
2017-11-25T11:52:40.955Z,7.40
2017-11-25T11:55:15.283Z,7.40
2017-11-25T11:57:49.117Z,7.30
2017-11-25T12:00:22.996Z,7.20
2017-11-25T12:02:56.819Z,7.20
2017-11-25T12:05:37.866Z,7.30
2017-11-25T12:08:11.675Z,7.40
2017-11-25T12:10:45.741Z,7.40
2017-11-25T12:13:25.495Z,7.50
2017-11-25T12:15:59.175Z,7.50
2017-11-25T12:18:34.013Z,7.40
2017-11-25T12:21:08.187Z,7.50
2017-11-25T12:23:42.124Z,7.50
2017-11-25T12:26:16.835Z,7.50
2017-11-25T12:28:59.355Z,7.50
2017-11-25T12:31:33.159Z,7.50
2017-11-25T12:34:11.917Z,7.40
2017-11-25T12:36:45.946Z,7.40
2017-11-25T12:39:21.558Z,7.50
2017-11-25T12:41:56.214Z,7.50
2017-11-25T12:44:31.162Z,7.50
2017-11-25T12:47:05.989Z,7.70
2017-11-25T12:49:40.777Z,7.60
2017-11-25T12:52:14.547Z,7.60
2017-11-25T12:54:51.133Z,7.50
2017-11-25T12:57:25.932Z,7.50
2017-11-25T13:00:00.607Z,7.40
2017-11-25T13:02:38.214Z,7.40
2017-11-25T13:05:11.920Z,7.40
2017-11-25T13:07:47.668Z,7.40
2017-11-25T13:10:21.539Z,7.40
2017-11-25T13:12:55.374Z,7.40
2017-11-25T13:15:29.276Z,7.50
2017-11-25T13:18:03.223Z,7.60
2017-11-25T13:20:37.159Z,7.80
2017-11-25T13:23:11.033Z,7.80
2017-11-25T13:25:45.821Z,7.60
2017-11-25T13:28:19.679Z,7.70
2017-11-25T13:30:54.132Z,7.90
2017-11-25T13:33:28.277Z,7.80
2017-11-25T13:36:03.585Z,7.90
2017-11-25T13:38:37.504Z,7.90
2017-11-25T13:41:12.103Z,8.00
2017-11-25T13:43:46.850Z,7.90
2017-11-25T13:46:20.704Z,7.90
2017-11-25T13:48:54.547Z,8.10
2017-11-25T13:51:29.216Z,8.00
2017-11-25T13:54:03.895Z,8.10
2017-11-25T13:56:38.390Z,8.00
2017-11-25T13:59:12.416Z,8.10
2017-11-25T14:01:46.288Z,8.10
2017-11-25T14:04:20.274Z,8.20
2017-11-25T14:06:55.573Z,8.00
2017-11-25T14:09:30.616Z,8.00
2017-11-25T14:12:04.349Z,8.00
2017-11-25T14:14:40.072Z,8.10
2017-11-25T14:17:14.521Z,8.10
2017-11-25T14:19:48.626Z,8.20
2017-11-25T14:22:23.279Z,8.20
2017-11-25T14:24:57.343Z,8.20
2017-11-25T14:27:31.929Z,8.10
2017-11-25T14:30:05.989Z,8.20
2017-11-25T14:32:39.768Z,8.30
2017-11-25T14:35:13.710Z,8.40
2017-11-25T14:37:47.633Z,8.40
2017-11-25T14:40:21.413Z,8.40
2017-11-25T14:42:55.226Z,8.50
2017-11-25T14:45:30.985Z,8.40
2017-11-25T14:48:04.787Z,8.40
2017-11-25T14:50:39.696Z,8.30
2017-11-25T14:53:13.565Z,8.30
2017-11-25T14:55:51.802Z,8.30
2017-11-25T14:58:25.691Z,8.30
2017-11-25T15:00:59.629Z,8.30
2017-11-25T15:03:34.245Z,8.30
2017-11-25T15:06:09.150Z,8.30
2017-11-25T15:08:43.788Z,8.30
2017-11-25T15:14:18.161Z,8.00
2017-11-25T15:16:51.871Z,8.00
2017-11-25T15:19:29.056Z,8.00
2017-11-25T15:22:02.762Z,7.90
2017-11-25T15:24:36.635Z,7.90
2017-11-25T15:27:11.689Z,7.90
2017-11-25T15:29:49.886Z,7.80
2017-11-25T15:32:26.750Z,7.50
2017-11-25T15:35:00.533Z,7.20
2017-11-25T15:37:39.650Z,6.90
2017-11-25T15:40:13.558Z,6.80
2017-11-25T15:42:52.936Z,6.60
2017-11-25T15:45:26.681Z,6.30
2017-11-25T15:48:01.304Z,6.20
2017-11-25T15:50:35.944Z,6.20
2017-11-25T15:53:10.497Z,6.30
2017-11-25T15:55:45.506Z,6.20
2017-11-25T15:58:19.430Z,6.30
2017-11-25T16:00:53.259Z,6.10
2017-11-25T16:03:27.022Z,6.10
2017-11-25T16:06:02.465Z,6.20
2017-11-25T16:08:37.108Z,6.30
2017-11-25T16:11:11.104Z,6.30
2017-11-25T16:13:45.795Z,6.20
2017-11-25T16:16:21.804Z,6.20
2017-11-25T16:18:56.425Z,6.10
2017-11-25T16:21:30.508Z,6.10
2017-11-25T16:24:05.148Z,6.00
2017-11-25T16:26:39.149Z,5.90
2017-11-25T16:29:13.669Z,6.00
2017-11-25T16:31:48.395Z,6.00
2017-11-25T16:34:22.151Z,6.00
2017-11-25T16:36:55.999Z,6.00
2017-11-25T16:39:30.895Z,6.10
2017-11-25T16:42:04.721Z,6.10
2017-11-25T16:44:38.593Z,6.10
2017-11-25T16:47:12.452Z,6.20
2017-11-25T16:49:46.322Z,6.20
2017-11-25T16:52:22.482Z,6.20
2017-11-25T16:54:56.266Z,6.20
2017-11-25T16:57:30.116Z,6.20
2017-11-25T17:00:04.762Z,6.20
2017-11-25T17:02:40.530Z,6.20
2017-11-25T17:05:14.293Z,6.20
2017-11-25T17:07:49.062Z,6.20
2017-11-25T17:10:22.762Z,6.20
2017-11-25T17:12:57.180Z,6.20
2017-11-25T17:15:31.805Z,6.40
2017-11-25T17:18:06.588Z,6.30
2017-11-25T17:20:40.339Z,6.40
2017-11-25T17:23:14.909Z,6.30
2017-11-25T17:25:49.541Z,6.00
2017-11-25T17:28:24.064Z,5.70
2017-11-25T17:31:17.775Z,5.60
2017-11-25T17:33:51.496Z,5.50
2017-11-25T17:36:27.362Z,5.20
2017-11-25T17:39:01.852Z,5.10
2017-11-25T17:41:39.092Z,5.10
2017-11-25T17:44:13.118Z,5.00
2017-11-25T17:46:46.935Z,4.90
2017-11-25T17:49:20.786Z,4.90
2017-11-25T17:52:00.152Z,4.90
2017-11-25T17:54:34.825Z,4.90
2017-11-25T17:57:13.233Z,4.90
2017-11-25T17:59:47.032Z,4.80
2017-11-25T18:02:31.605Z,4.70
2017-11-25T18:05:05.361Z,4.60
2017-11-25T18:07:46.575Z,4.60
2017-11-25T18:10:20.437Z,4.60
2017-11-25T18:12:55.269Z,4.40
2017-11-25T18:15:30.230Z,4.50
2017-11-25T18:18:11.653Z,4.50
2017-11-25T18:20:45.553Z,4.60
2017-11-25T18:23:19.330Z,4.70
2017-11-25T18:25:54.323Z,4.70
2017-11-25T18:28:30.189Z,4.60
2017-11-25T18:31:04.859Z,4.80
2017-11-25T18:33:42.695Z,4.80
2017-11-25T18:36:16.535Z,4.90
2017-11-25T18:38:52.448Z,4.90
2017-11-25T18:41:26.255Z,4.90
2017-11-25T18:44:08.430Z,4.80
2017-11-25T18:46:42.281Z,4.80
2017-11-25T18:49:16.806Z,5.00
2017-11-25T18:51:51.380Z,5.00
2017-11-25T18:54:26.057Z,4.90
2017-11-25T18:57:00.151Z,4.90
2017-11-25T18:59:35.112Z,5.00
2017-11-25T19:02:08.913Z,4.90
2017-11-25T19:04:50.758Z,4.90
2017-11-25T19:07:24.668Z,4.80
2017-11-25T19:10:22.362Z,4.80
2017-11-25T19:12:56.882Z,4.80
2017-11-25T19:15:31.635Z,4.80
2017-11-25T19:18:05.594Z,4.80
2017-11-25T19:20:44.825Z,4.80
2017-11-25T19:23:18.756Z,4.90
2017-11-25T19:25:53.658Z,4.90
2017-11-25T19:28:27.845Z,5.00
2017-11-25T19:31:07.589Z,5.00
2017-11-25T19:33:41.358Z,5.00
2017-11-25T19:36:16.244Z,5.00
2017-11-25T19:38:50.099Z,4.80
2017-11-25T19:41:29.898Z,4.90
2017-11-25T19:44:03.750Z,4.90
2017-11-25T19:46:42.121Z,5.00
2017-11-25T19:49:16.677Z,5.10
2017-11-25T19:51:54.494Z,5.00
2017-11-25T19:54:28.661Z,5.00
2017-11-25T19:57:03.589Z,5.00
2017-11-25T19:59:37.500Z,5.10
2017-11-25T20:02:19.247Z,5.10
2017-11-25T20:04:53.081Z,5.10
2017-11-25T20:07:31.601Z,5.10
2017-11-25T20:10:05.294Z,5.00
2017-11-25T20:12:40.126Z,4.90
2017-11-25T20:15:14.418Z,4.90
2017-11-25T20:17:48.185Z,4.90
2017-11-25T20:20:21.899Z,4.90
2017-11-25T20:22:56.915Z,4.90
2017-11-25T20:25:30.922Z,4.90
2017-11-25T20:28:04.615Z,5.00
2017-11-25T20:30:38.901Z,5.00
2017-11-25T20:33:28.314Z,5.00
2017-11-25T20:36:03.033Z,5.00
2017-11-25T20:38:39.160Z,5.00
2017-11-25T20:41:13.615Z,4.90
2017-11-25T20:43:47.507Z,4.90
2017-11-25T20:46:21.319Z,4.90
2017-11-25T20:48:57.263Z,4.90
2017-11-25T20:51:31.432Z,4.80
2017-11-25T20:54:05.546Z,4.80
2017-11-25T20:56:39.329Z,4.80
2017-11-25T20:59:14.103Z,4.80
2017-11-25T21:01:49.514Z,4.80
2017-11-25T21:04:30.362Z,4.80
2017-11-25T21:07:04.238Z,4.90
2017-11-25T21:09:43.694Z,4.80
2017-11-25T21:12:17.603Z,4.80
2017-11-25T21:14:54.623Z,4.80
2017-11-25T21:17:28.528Z,4.80
2017-11-25T21:20:08.044Z,4.90
2017-11-25T21:22:42.587Z,4.80
2017-11-25T21:25:24.191Z,4.80
2017-11-25T21:27:58.010Z,4.80
2017-11-25T21:30:31.999Z,4.80
2017-11-25T21:33:05.785Z,4.80
2017-11-25T21:35:46.033Z,4.80
2017-11-25T21:38:19.899Z,4.80
2017-11-25T21:40:54.741Z,4.70
2017-11-25T21:43:28.698Z,4.80
2017-11-25T21:46:10.462Z,4.70
2017-11-25T21:48:44.303Z,4.70
2017-11-25T21:51:20.156Z,4.80
2017-11-25T21:53:55.186Z,4.90
2017-11-25T21:56:28.998Z,4.80
2017-11-25T21:59:08.119Z,4.90
2017-11-25T22:01:42.187Z,4.90
2017-11-25T22:04:16.770Z,4.80
2017-11-25T22:06:50.591Z,4.70
2017-11-25T22:09:24.323Z,4.70
2017-11-25T22:11:58.756Z,4.70
2017-11-25T22:14:33.051Z,4.80
2017-11-25T22:17:06.850Z,4.70
2017-11-25T22:19:41.875Z,4.80
2017-11-25T22:22:15.778Z,4.80
2017-11-25T22:24:51.371Z,4.80
2017-11-25T22:27:25.381Z,4.80
2017-11-25T22:30:00.121Z,4.80
2017-11-25T22:32:34.660Z,4.70
2017-11-25T22:35:08.337Z,4.70
2017-11-25T22:37:42.241Z,4.80
2017-11-25T22:40:16.815Z,4.90
2017-11-25T22:42:50.925Z,4.80
2017-11-25T22:45:26.138Z,4.90
2017-11-25T22:48:00.778Z,4.90
2017-11-25T22:50:53.307Z,4.90
2017-11-25T22:53:27.184Z,4.90
2017-11-25T22:56:02.421Z,4.70
2017-11-25T22:58:36.318Z,4.70
2017-11-25T23:04:13.654Z,4.70
2017-11-25T23:06:49.167Z,4.50
2017-11-25T23:09:29.138Z,4.30
2017-11-25T23:12:02.986Z,4.30
2017-11-25T23:14:37.652Z,4.20
2017-11-25T23:17:11.425Z,4.20
2017-11-25T23:19:52.574Z,4.30
2017-11-25T23:22:26.380Z,4.30
2017-11-25T23:25:04.880Z,4.20
2017-11-25T23:27:39.978Z,4.20
2017-11-25T23:30:13.696Z,4.10
2017-11-25T23:32:48.606Z,4.00
2017-11-25T23:35:23.265Z,4.00
2017-11-25T23:38:02.474Z,3.90
2017-11-25T23:40:36.413Z,3.90
2017-11-25T23:43:17.039Z,3.80
2017-11-25T23:45:53.034Z,3.70
2017-11-25T23:48:27.621Z,3.80
2017-11-25T23:51:03.813Z,3.80
2017-11-25T23:53:37.706Z,3.80
2017-11-25T23:56:20.894Z,3.90
2017-11-25T23:58:54.741Z,3.90
